sensor_id;sensor_type;location;lat;lon;timestamp;temperature;humidity
20815;DHT22;10568;48.176;16.316;2022-11-12T00:00:34;8.00;99.90
20815;DHT22;10568;48.176;16.316;2022-11-12T00:03:00;8.00;99.90
20815;DHT22;10568;48.176;16.316;2022-11-12T00:05:26;8.00;99.90
20815;DHT22;10568;48.176;16.316;2022-11-12T00:07:52;7.90;99.90
20815;DHT22;10568;48.176;16.316;2022-11-12T00:10:18;7.80;99.90
20815;DHT22;10568;48.176;16.316;2022-11-12T00:12:44;7.80;99.90
20815;DHT22;10568;48.176;16.316;2022-11-12T00:15:10;7.90;99.90
20815;DHT22;10568;48.176;16.316;2022-11-12T00:17:36;7.80;99.90
20815;DHT22;10568;48.176;16.316;2022-11-12T00:20:02;7.80;99.90
20815;DHT22;10568;48.176;16.316;2022-11-12T00:22:28;7.70;99.90
20815;DHT22;10568;48.176;16.316;2022-11-12T00:24:54;7.70;99.90
20815;DHT22;10568;48.176;16.316;2022-11-12T00:27:20;7.70;99.90
20815;DHT22;10568;48.176;16.316;2022-11-12T00:29:46;7.60;99.90
20815;DHT22;10568;48.176;16.316;2022-11-12T00:32:11;7.60;99.90
20815;DHT22;10568;48.176;16.316;2022-11-12T00:34:37;7.50;99.90
20815;DHT22;10568;48.176;16.316;2022-11-12T00:37:04;7.40;99.90
20815;DHT22;10568;48.176;16.316;2022-11-12T00:39:30;7.40;99.90
20815;DHT22;10568;48.176;16.316;2022-11-12T00:41:55;7.40;99.90
20815;DHT22;10568;48.176;16.316;2022-11-12T00:44:21;7.40;99.90
20815;DHT22;10568;48.176;16.316;2022-11-12T00:46:47;7.40;99.90
20815;DHT22;10568;48.176;16.316;2022-11-12T00:49:13;7.40;99.90
20815;DHT22;10568;48.176;16.316;2022-11-12T00:51:39;7.40;99.90
20815;DHT22;10568;48.176;16.316;2022-11-12T00:54:05;7.50;99.90
20815;DHT22;10568;48.176;16.316;2022-11-12T00:56:31;7.60;99.90
20815;DHT22;10568;48.176;16.316;2022-11-12T00:58:57;7.50;99.90
20815;DHT22;10568;48.176;16.316;2022-11-12T01:01:23;7.50;99.90
20815;DHT22;10568;48.176;16.316;2022-11-12T01:03:50;7.50;99.90
20815;DHT22;10568;48.176;16.316;2022-11-12T01:06:18;7.40;99.90
20815;DHT22;10568;48.176;16.316;2022-11-12T01:08:44;7.40;99.90
20815;DHT22;10568;48.176;16.316;2022-11-12T01:13:42;7.30;99.90
20815;DHT22;10568;48.176;16.316;2022-11-12T01:16:13;7.40;99.90
20815;DHT22;10568;48.176;16.316;2022-11-12T01:18:40;7.40;99.90
20815;DHT22;10568;48.176;16.316;2022-11-12T01:21:07;7.50;99.90
20815;DHT22;10568;48.176;16.316;2022-11-12T01:23:35;7.50;99.90
20815;DHT22;10568;48.176;16.316;2022-11-12T01:26:05;7.50;99.90
20815;DHT22;10568;48.176;16.316;2022-11-12T01:28:31;7.50;99.90
20815;DHT22;10568;48.176;16.316;2022-11-12T01:30:57;7.50;99.90
20815;DHT22;10568;48.176;16.316;2022-11-12T01:33:23;7.60;99.90
20815;DHT22;10568;48.176;16.316;2022-11-12T01:35:49;7.60;99.90
20815;DHT22;10568;48.176;16.316;2022-11-12T01:38:15;7.50;99.90
20815;DHT22;10568;48.176;16.316;2022-11-12T01:40:40;7.50;99.90
20815;DHT22;10568;48.176;16.316;2022-11-12T01:43:13;7.40;99.90
20815;DHT22;10568;48.176;16.316;2022-11-12T01:45:40;7.30;99.90
20815;DHT22;10568;48.176;16.316;2022-11-12T01:50:43;7.30;99.90
20815;DHT22;10568;48.176;16.316;2022-11-12T01:53:10;7.20;99.90
20815;DHT22;10568;48.176;16.316;2022-11-12T01:55:37;7.20;99.90
20815;DHT22;10568;48.176;16.316;2022-11-12T01:58:14;7.20;99.90
20815;DHT22;10568;48.176;16.316;2022-11-12T02:00:42;7.20;99.90
20815;DHT22;10568;48.176;16.316;2022-11-12T02:03:28;7.10;99.90
20815;DHT22;10568;48.176;16.316;2022-11-12T02:06:01;7.10;99.90
20815;DHT22;10568;48.176;16.316;2022-11-12T02:08:28;7.00;99.90
20815;DHT22;10568;48.176;16.316;2022-11-12T02:10:55;7.00;99.90
20815;DHT22;10568;48.176;16.316;2022-11-12T02:13:21;6.90;99.90
20815;DHT22;10568;48.176;16.316;2022-11-12T02:16:06;6.90;99.90
20815;DHT22;10568;48.176;16.316;2022-11-12T02:18:33;6.90;99.90
20815;DHT22;10568;48.176;16.316;2022-11-12T02:21:04;6.90;99.90
20815;DHT22;10568;48.176;16.316;2022-11-12T02:23:30;6.80;99.90
20815;DHT22;10568;48.176;16.316;2022-11-12T02:25:59;6.80;99.90
20815;DHT22;10568;48.176;16.316;2022-11-12T02:31:47;6.80;99.90
20815;DHT22;10568;48.176;16.316;2022-11-12T02:34:13;6.80;99.90
20815;DHT22;10568;48.176;16.316;2022-11-12T02:36:38;6.90;99.90
20815;DHT22;10568;48.176;16.316;2022-11-12T02:39:04;6.90;99.90
20815;DHT22;10568;48.176;16.316;2022-11-12T02:41:30;6.90;99.90
20815;DHT22;10568;48.176;16.316;2022-11-12T02:43:56;6.90;99.90
20815;DHT22;10568;48.176;16.316;2022-11-12T02:46:22;6.90;99.90
20815;DHT22;10568;48.176;16.316;2022-11-12T02:48:47;6.90;99.90
20815;DHT22;10568;48.176;16.316;2022-11-12T02:51:13;6.90;99.90
20815;DHT22;10568;48.176;16.316;2022-11-12T02:53:39;7.00;99.90
20815;DHT22;10568;48.176;16.316;2022-11-12T02:56:04;7.10;99.90
20815;DHT22;10568;48.176;16.316;2022-11-12T02:58:31;7.10;99.90
20815;DHT22;10568;48.176;16.316;2022-11-12T03:00:56;7.10;99.90
20815;DHT22;10568;48.176;16.316;2022-11-12T03:03:23;7.20;99.90
20815;DHT22;10568;48.176;16.316;2022-11-12T03:05:59;7.20;99.90
20815;DHT22;10568;48.176;16.316;2022-11-12T03:08:26;7.20;99.90
20815;DHT22;10568;48.176;16.316;2022-11-12T03:10:52;7.20;99.90
20815;DHT22;10568;48.176;16.316;2022-11-12T03:13:18;7.20;99.90
20815;DHT22;10568;48.176;16.316;2022-11-12T03:15:44;7.40;99.90
20815;DHT22;10568;48.176;16.316;2022-11-12T03:18:10;7.30;99.90
20815;DHT22;10568;48.176;16.316;2022-11-12T03:20:36;7.30;99.90
20815;DHT22;10568;48.176;16.316;2022-11-12T03:23:05;7.40;99.90
20815;DHT22;10568;48.176;16.316;2022-11-12T03:25:31;7.40;99.90
20815;DHT22;10568;48.176;16.316;2022-11-12T03:27:59;7.50;99.90
20815;DHT22;10568;48.176;16.316;2022-11-12T03:30:26;7.50;99.90
20815;DHT22;10568;48.176;16.316;2022-11-12T03:32:53;7.60;99.90
20815;DHT22;10568;48.176;16.316;2022-11-12T03:35:19;7.60;99.90
20815;DHT22;10568;48.176;16.316;2022-11-12T03:37:44;7.70;99.90
20815;DHT22;10568;48.176;16.316;2022-11-12T03:40:10;7.70;99.90
20815;DHT22;10568;48.176;16.316;2022-11-12T03:42:36;7.70;99.90
20815;DHT22;10568;48.176;16.316;2022-11-12T03:45:02;7.70;99.90
20815;DHT22;10568;48.176;16.316;2022-11-12T03:47:28;7.80;99.90
20815;DHT22;10568;48.176;16.316;2022-11-12T03:49:53;7.80;99.90
20815;DHT22;10568;48.176;16.316;2022-11-12T03:52:19;7.80;99.90
20815;DHT22;10568;48.176;16.316;2022-11-12T03:54:45;7.70;99.90
20815;DHT22;10568;48.176;16.316;2022-11-12T03:57:10;7.70;99.90
20815;DHT22;10568;48.176;16.316;2022-11-12T03:59:36;7.70;99.90
20815;DHT22;10568;48.176;16.316;2022-11-12T04:02:02;7.70;99.90
20815;DHT22;10568;48.176;16.316;2022-11-12T04:04:28;7.70;99.90
20815;DHT22;10568;48.176;16.316;2022-11-12T04:07:14;7.60;99.90
20815;DHT22;10568;48.176;16.316;2022-11-12T04:09:58;7.60;99.90
20815;DHT22;10568;48.176;16.316;2022-11-12T04:12:23;7.60;99.90
20815;DHT22;10568;48.176;16.316;2022-11-12T04:15:08;7.50;99.90
20815;DHT22;10568;48.176;16.316;2022-11-12T04:17:33;7.40;99.90
20815;DHT22;10568;48.176;16.316;2022-11-12T04:20:18;7.40;99.90
20815;DHT22;10568;48.176;16.316;2022-11-12T04:23:02;7.30;99.90
20815;DHT22;10568;48.176;16.316;2022-11-12T04:25:28;7.30;99.90
20815;DHT22;10568;48.176;16.316;2022-11-12T04:28:12;7.30;99.90
20815;DHT22;10568;48.176;16.316;2022-11-12T04:30:38;7.20;99.90
20815;DHT22;10568;48.176;16.316;2022-11-12T04:33:03;7.10;99.90
20815;DHT22;10568;48.176;16.316;2022-11-12T04:35:29;7.10;99.90
20815;DHT22;10568;48.176;16.316;2022-11-12T04:37:55;7.10;99.90
20815;DHT22;10568;48.176;16.316;2022-11-12T04:40:24;7.00;99.90
20815;DHT22;10568;48.176;16.316;2022-11-12T04:43:14;7.00;99.90
20815;DHT22;10568;48.176;16.316;2022-11-12T04:45:59;6.90;99.90
20815;DHT22;10568;48.176;16.316;2022-11-12T04:48:25;6.80;99.90
20815;DHT22;10568;48.176;16.316;2022-11-12T04:51:17;6.70;99.90
20815;DHT22;10568;48.176;16.316;2022-11-12T04:54:02;6.60;99.90
20815;DHT22;10568;48.176;16.316;2022-11-12T04:56:27;6.50;99.90
20815;DHT22;10568;48.176;16.316;2022-11-12T04:58:53;6.50;99.90
20815;DHT22;10568;48.176;16.316;2022-11-12T05:01:19;6.40;99.90
20815;DHT22;10568;48.176;16.316;2022-11-12T05:03:44;6.30;99.90
20815;DHT22;10568;48.176;16.316;2022-11-12T05:06:10;6.20;99.90
20815;DHT22;10568;48.176;16.316;2022-11-12T05:08:54;6.10;99.90
20815;DHT22;10568;48.176;16.316;2022-11-12T05:11:20;6.10;99.90
20815;DHT22;10568;48.176;16.316;2022-11-12T05:13:46;5.90;99.90
20815;DHT22;10568;48.176;16.316;2022-11-12T05:16:11;5.90;99.90
20815;DHT22;10568;48.176;16.316;2022-11-12T05:18:37;5.80;99.90
20815;DHT22;10568;48.176;16.316;2022-11-12T05:21:03;5.70;99.90
20815;DHT22;10568;48.176;16.316;2022-11-12T05:23:48;5.70;99.90
20815;DHT22;10568;48.176;16.316;2022-11-12T05:26:14;5.60;99.90
20815;DHT22;10568;48.176;16.316;2022-11-12T05:28:40;5.60;99.90
20815;DHT22;10568;48.176;16.316;2022-11-12T05:31:06;5.60;99.90
20815;DHT22;10568;48.176;16.316;2022-11-12T05:33:31;5.50;99.90
20815;DHT22;10568;48.176;16.316;2022-11-12T05:35:57;5.40;99.90
20815;DHT22;10568;48.176;16.316;2022-11-12T05:38:23;5.40;99.90
20815;DHT22;10568;48.176;16.316;2022-11-12T05:40:48;5.40;99.90
20815;DHT22;10568;48.176;16.316;2022-11-12T05:43:14;5.40;99.90
20815;DHT22;10568;48.176;16.316;2022-11-12T05:45:43;5.30;99.90
20815;DHT22;10568;48.176;16.316;2022-11-12T05:48:08;5.30;99.90
20815;DHT22;10568;48.176;16.316;2022-11-12T05:50:34;5.30;99.90
20815;DHT22;10568;48.176;16.316;2022-11-12T05:53:00;5.30;99.90
20815;DHT22;10568;48.176;16.316;2022-11-12T05:55:25;5.30;99.90
20815;DHT22;10568;48.176;16.316;2022-11-12T05:57:51;5.30;99.90
20815;DHT22;10568;48.176;16.316;2022-11-12T06:00:17;5.40;99.90
20815;DHT22;10568;48.176;16.316;2022-11-12T06:02:43;5.40;99.90
20815;DHT22;10568;48.176;16.316;2022-11-12T06:05:08;5.40;99.90
20815;DHT22;10568;48.176;16.316;2022-11-12T06:07:34;5.50;99.90
20815;DHT22;10568;48.176;16.316;2022-11-12T06:10:00;5.60;99.90
20815;DHT22;10568;48.176;16.316;2022-11-12T06:12:25;5.60;99.90
20815;DHT22;10568;48.176;16.316;2022-11-12T06:14:51;5.60;99.90
20815;DHT22;10568;48.176;16.316;2022-11-12T06:17:17;5.70;99.90
20815;DHT22;10568;48.176;16.316;2022-11-12T06:19:42;5.70;99.90
20815;DHT22;10568;48.176;16.316;2022-11-12T06:22:08;5.80;99.90
20815;DHT22;10568;48.176;16.316;2022-11-12T06:24:34;5.80;99.90
20815;DHT22;10568;48.176;16.316;2022-11-12T06:26:59;5.90;99.90
20815;DHT22;10568;48.176;16.316;2022-11-12T06:29:25;6.00;99.90
20815;DHT22;10568;48.176;16.316;2022-11-12T06:31:51;6.10;99.90
20815;DHT22;10568;48.176;16.316;2022-11-12T06:34:16;6.10;99.90
20815;DHT22;10568;48.176;16.316;2022-11-12T06:36:42;6.20;99.90
20815;DHT22;10568;48.176;16.316;2022-11-12T06:39:10;6.30;99.90
20815;DHT22;10568;48.176;16.316;2022-11-12T06:41:36;6.40;99.90
20815;DHT22;10568;48.176;16.316;2022-11-12T06:44:03;6.50;99.90
20815;DHT22;10568;48.176;16.316;2022-11-12T06:46:29;6.50;99.90
20815;DHT22;10568;48.176;16.316;2022-11-12T06:48:55;6.60;99.90
20815;DHT22;10568;48.176;16.316;2022-11-12T06:51:20;6.60;99.90
20815;DHT22;10568;48.176;16.316;2022-11-12T06:53:47;6.70;99.90
20815;DHT22;10568;48.176;16.316;2022-11-12T06:56:13;6.80;99.90
20815;DHT22;10568;48.176;16.316;2022-11-12T06:58:39;6.80;99.90
20815;DHT22;10568;48.176;16.316;2022-11-12T07:01:06;6.90;99.90
20815;DHT22;10568;48.176;16.316;2022-11-12T07:03:32;6.90;99.90
20815;DHT22;10568;48.176;16.316;2022-11-12T07:06:03;7.00;99.90
20815;DHT22;10568;48.176;16.316;2022-11-12T07:08:28;7.10;99.90
20815;DHT22;10568;48.176;16.316;2022-11-12T07:10:55;7.20;99.90
20815;DHT22;10568;48.176;16.316;2022-11-12T07:13:22;7.20;99.90
20815;DHT22;10568;48.176;16.316;2022-11-12T07:15:47;7.30;99.90
20815;DHT22;10568;48.176;16.316;2022-11-12T07:18:13;7.40;99.90
20815;DHT22;10568;48.176;16.316;2022-11-12T07:24:01;7.50;99.90
20815;DHT22;10568;48.176;16.316;2022-11-12T07:26:26;7.60;99.90
20815;DHT22;10568;48.176;16.316;2022-11-12T07:28:53;7.60;99.90
20815;DHT22;10568;48.176;16.316;2022-11-12T07:31:21;7.70;99.90
20815;DHT22;10568;48.176;16.316;2022-11-12T07:37:09;7.80;99.90
20815;DHT22;10568;48.176;16.316;2022-11-12T07:39:35;7.90;99.90
20815;DHT22;10568;48.176;16.316;2022-11-12T07:42:00;8.00;99.90
20815;DHT22;10568;48.176;16.316;2022-11-12T07:44:26;8.10;99.90
20815;DHT22;10568;48.176;16.316;2022-11-12T07:50:15;8.20;99.90
20815;DHT22;10568;48.176;16.316;2022-11-12T07:52:41;8.30;99.90
20815;DHT22;10568;48.176;16.316;2022-11-12T07:55:07;8.40;99.90
20815;DHT22;10568;48.176;16.316;2022-11-12T07:57:33;8.50;99.90
20815;DHT22;10568;48.176;16.316;2022-11-12T08:03:20;8.70;99.90
20815;DHT22;10568;48.176;16.316;2022-11-12T08:05:46;8.70;99.90
20815;DHT22;10568;48.176;16.316;2022-11-12T08:08:12;8.80;99.90
20815;DHT22;10568;48.176;16.316;2022-11-12T08:10:38;8.90;99.90
20815;DHT22;10568;48.176;16.316;2022-11-12T08:13:04;9.00;99.90
20815;DHT22;10568;48.176;16.316;2022-11-12T08:15:30;9.10;99.90
20815;DHT22;10568;48.176;16.316;2022-11-12T08:17:56;9.20;99.90
20815;DHT22;10568;48.176;16.316;2022-11-12T08:20:22;9.20;99.90
20815;DHT22;10568;48.176;16.316;2022-11-12T08:22:48;9.30;99.90
20815;DHT22;10568;48.176;16.316;2022-11-12T08:25:14;9.40;99.90
20815;DHT22;10568;48.176;16.316;2022-11-12T08:27:39;9.50;99.90
20815;DHT22;10568;48.176;16.316;2022-11-12T08:30:06;9.50;99.90
20815;DHT22;10568;48.176;16.316;2022-11-12T08:32:32;9.60;99.90
20815;DHT22;10568;48.176;16.316;2022-11-12T08:34:58;9.70;99.90
20815;DHT22;10568;48.176;16.316;2022-11-12T08:37:23;9.80;99.90
20815;DHT22;10568;48.176;16.316;2022-11-12T08:39:49;9.90;99.90
20815;DHT22;10568;48.176;16.316;2022-11-12T08:42:15;10.00;99.90
20815;DHT22;10568;48.176;16.316;2022-11-12T08:44:40;10.10;99.90
20815;DHT22;10568;48.176;16.316;2022-11-12T08:47:06;10.10;99.90
20815;DHT22;10568;48.176;16.316;2022-11-12T08:49:32;10.20;99.90
20815;DHT22;10568;48.176;16.316;2022-11-12T08:51:57;10.30;99.90
20815;DHT22;10568;48.176;16.316;2022-11-12T08:54:23;10.40;99.90
20815;DHT22;10568;48.176;16.316;2022-11-12T08:56:49;10.50;99.90
20815;DHT22;10568;48.176;16.316;2022-11-12T08:59:15;10.60;99.90
20815;DHT22;10568;48.176;16.316;2022-11-12T09:01:41;10.70;99.90
20815;DHT22;10568;48.176;16.316;2022-11-12T09:04:07;10.80;99.90
20815;DHT22;10568;48.176;16.316;2022-11-12T09:06:33;11.00;99.90
20815;DHT22;10568;48.176;16.316;2022-11-12T09:08:58;11.10;99.90
20815;DHT22;10568;48.176;16.316;2022-11-12T09:11:24;11.20;99.90
20815;DHT22;10568;48.176;16.316;2022-11-12T09:13:54;11.30;99.90
20815;DHT22;10568;48.176;16.316;2022-11-12T09:16:19;11.40;99.90
20815;DHT22;10568;48.176;16.316;2022-11-12T09:18:48;11.50;99.90
20815;DHT22;10568;48.176;16.316;2022-11-12T09:21:14;11.60;99.90
20815;DHT22;10568;48.176;16.316;2022-11-12T09:23:40;11.70;99.90
20815;DHT22;10568;48.176;16.316;2022-11-12T09:26:05;11.80;99.90
20815;DHT22;10568;48.176;16.316;2022-11-12T09:28:32;12.00;99.90
20815;DHT22;10568;48.176;16.316;2022-11-12T09:31:07;12.10;99.90
20815;DHT22;10568;48.176;16.316;2022-11-12T09:33:33;12.20;99.90
20815;DHT22;10568;48.176;16.316;2022-11-12T09:36:00;12.30;99.90
20815;DHT22;10568;48.176;16.316;2022-11-12T09:38:26;12.40;99.90
20815;DHT22;10568;48.176;16.316;2022-11-12T09:43:28;12.60;99.90
20815;DHT22;10568;48.176;16.316;2022-11-12T09:45:58;12.80;99.90
20815;DHT22;10568;48.176;16.316;2022-11-12T09:48:38;12.90;99.90
20815;DHT22;10568;48.176;16.316;2022-11-12T09:51:18;12.90;99.90
20815;DHT22;10568;48.176;16.316;2022-11-12T09:53:59;13.00;99.90
20815;DHT22;10568;48.176;16.316;2022-11-12T09:56:26;13.00;99.90
20815;DHT22;10568;48.176;16.316;2022-11-12T09:58:55;13.00;99.90
20815;DHT22;10568;48.176;16.316;2022-11-12T10:01:47;13.10;99.90
20815;DHT22;10568;48.176;16.316;2022-11-12T10:07:03;13.10;99.90
20815;DHT22;10568;48.176;16.316;2022-11-12T10:09:47;13.20;99.90
20815;DHT22;10568;48.176;16.316;2022-11-12T10:18:31;13.20;99.90
20815;DHT22;10568;48.176;16.316;2022-11-12T10:23:44;13.20;99.90
20815;DHT22;10568;48.176;16.316;2022-11-12T10:26:16;13.30;99.90
20815;DHT22;10568;48.176;16.316;2022-11-12T10:31:15;13.60;99.90
20815;DHT22;10568;48.176;16.316;2022-11-12T10:33:41;13.60;99.90
20815;DHT22;10568;48.176;16.316;2022-11-12T10:36:19;13.90;99.90
20815;DHT22;10568;48.176;16.316;2022-11-12T10:38:48;14.10;99.90
20815;DHT22;10568;48.176;16.316;2022-11-12T10:41:30;14.30;99.90
20815;DHT22;10568;48.176;16.316;2022-11-12T10:44:01;14.50;99.90
20815;DHT22;10568;48.176;16.316;2022-11-12T10:46:35;14.60;99.90
20815;DHT22;10568;48.176;16.316;2022-11-12T10:51:39;14.70;99.90
20815;DHT22;10568;48.176;16.316;2022-11-12T10:54:36;14.60;99.90
20815;DHT22;10568;48.176;16.316;2022-11-12T10:57:23;14.60;99.90
20815;DHT22;10568;48.176;16.316;2022-11-12T11:02:34;14.50;99.90
20815;DHT22;10568;48.176;16.316;2022-11-12T11:07:51;14.30;99.90
20815;DHT22;10568;48.176;16.316;2022-11-12T11:10:46;14.20;99.90
20815;DHT22;10568;48.176;16.316;2022-11-12T11:13:20;14.20;99.90
20815;DHT22;10568;48.176;16.316;2022-11-12T11:16:04;14.10;99.90
20815;DHT22;10568;48.176;16.316;2022-11-12T11:18:33;14.20;99.90
20815;DHT22;10568;48.176;16.316;2022-11-12T11:32:06;14.20;99.90
20815;DHT22;10568;48.176;16.316;2022-11-12T11:37:25;14.10;99.90
20815;DHT22;10568;48.176;16.316;2022-11-12T11:42:59;14.10;99.90
20815;DHT22;10568;48.176;16.316;2022-11-12T11:48:18;14.20;99.90
20815;DHT22;10568;48.176;16.316;2022-11-12T11:51:06;14.30;99.90
20815;DHT22;10568;48.176;16.316;2022-11-12T11:56:47;14.30;99.90
20815;DHT22;10568;48.176;16.316;2022-11-12T11:59:46;14.30;99.90
20815;DHT22;10568;48.176;16.316;2022-11-12T12:02:31;14.40;99.90
20815;DHT22;10568;48.176;16.316;2022-11-12T12:10:54;14.30;99.90
20815;DHT22;10568;48.176;16.316;2022-11-12T12:21:16;14.20;99.90
20815;DHT22;10568;48.176;16.316;2022-11-12T12:23:45;14.20;99.90
20815;DHT22;10568;48.176;16.316;2022-11-12T12:26:22;14.10;99.90
20815;DHT22;10568;48.176;16.316;2022-11-12T12:28:54;14.20;99.90
20815;DHT22;10568;48.176;16.316;2022-11-12T12:31:26;14.10;99.90
20815;DHT22;10568;48.176;16.316;2022-11-12T12:33:55;14.10;99.90
20815;DHT22;10568;48.176;16.316;2022-11-12T12:36:32;14.10;99.90
20815;DHT22;10568;48.176;16.316;2022-11-12T12:41:59;14.10;99.90
20815;DHT22;10568;48.176;16.316;2022-11-12T12:44:29;14.10;99.90
20815;DHT22;10568;48.176;16.316;2022-11-12T12:47:20;14.00;99.90
20815;DHT22;10568;48.176;16.316;2022-11-12T12:49:48;14.00;99.90
20815;DHT22;10568;48.176;16.316;2022-11-12T12:52:14;14.00;99.90
20815;DHT22;10568;48.176;16.316;2022-11-12T13:00:25;14.10;99.90
20815;DHT22;10568;48.176;16.316;2022-11-12T13:02:53;14.10;99.90
20815;DHT22;10568;48.176;16.316;2022-11-12T13:08:33;13.90;99.90
20815;DHT22;10568;48.176;16.316;2022-11-12T13:10:49;14.00;99.90
20815;DHT22;10568;48.176;16.316;2022-11-12T13:15:55;14.00;99.90
20815;DHT22;10568;48.176;16.316;2022-11-12T13:21:20;13.90;99.90
20815;DHT22;10568;48.176;16.316;2022-11-12T13:23:48;13.90;99.90
20815;DHT22;10568;48.176;16.316;2022-11-12T13:32:37;13.70;99.90
20815;DHT22;10568;48.176;16.316;2022-11-12T13:35:30;13.60;99.90
20815;DHT22;10568;48.176;16.316;2022-11-12T13:42:51;13.50;99.90
20815;DHT22;10568;48.176;16.316;2022-11-12T13:45:19;13.50;99.90
20815;DHT22;10568;48.176;16.316;2022-11-12T13:47:47;13.50;99.90
20815;DHT22;10568;48.176;16.316;2022-11-12T13:50:18;13.50;99.90
20815;DHT22;10568;48.176;16.316;2022-11-12T13:52:45;13.50;99.90
20815;DHT22;10568;48.176;16.316;2022-11-12T13:57:40;13.30;99.90
20815;DHT22;10568;48.176;16.316;2022-11-12T14:02:56;13.10;99.90
20815;DHT22;10568;48.176;16.316;2022-11-12T14:05:28;13.00;99.90
20815;DHT22;10568;48.176;16.316;2022-11-12T14:19:39;12.70;99.90
20815;DHT22;10568;48.176;16.316;2022-11-12T14:22:15;12.70;99.90
20815;DHT22;10568;48.176;16.316;2022-11-12T14:24:42;12.60;99.90
20815;DHT22;10568;48.176;16.316;2022-11-12T14:27:38;12.70;99.90
20815;DHT22;10568;48.176;16.316;2022-11-12T14:32:37;12.40;99.90
20815;DHT22;10568;48.176;16.316;2022-11-12T14:37:58;12.20;99.90
20815;DHT22;10568;48.176;16.316;2022-11-12T14:40:29;12.10;99.90
20815;DHT22;10568;48.176;16.316;2022-11-12T14:42:55;11.90;99.90
20815;DHT22;10568;48.176;16.316;2022-11-12T14:45:22;11.90;99.90
20815;DHT22;10568;48.176;16.316;2022-11-12T14:47:49;11.90;99.90
20815;DHT22;10568;48.176;16.316;2022-11-12T14:50:23;11.80;99.90
20815;DHT22;10568;48.176;16.316;2022-11-12T14:53:04;11.60;99.90
20815;DHT22;10568;48.176;16.316;2022-11-12T14:55:34;11.50;99.90
20815;DHT22;10568;48.176;16.316;2022-11-12T14:58:01;11.40;99.90
20815;DHT22;10568;48.176;16.316;2022-11-12T15:02:59;11.20;99.90
20815;DHT22;10568;48.176;16.316;2022-11-12T15:05:27;11.20;99.90
20815;DHT22;10568;48.176;16.316;2022-11-12T15:08:03;11.10;99.90
20815;DHT22;10568;48.176;16.316;2022-11-12T15:13:25;10.90;99.90
20815;DHT22;10568;48.176;16.316;2022-11-12T15:16:28;10.80;99.90
20815;DHT22;10568;48.176;16.316;2022-11-12T15:21:28;10.60;99.90
20815;DHT22;10568;48.176;16.316;2022-11-12T15:31:44;10.20;99.90
20815;DHT22;10568;48.176;16.316;2022-11-12T15:34:42;10.10;99.90
20815;DHT22;10568;48.176;16.316;2022-11-12T15:39:51;9.90;99.90
20815;DHT22;10568;48.176;16.316;2022-11-12T15:42:27;9.70;99.90
20815;DHT22;10568;48.176;16.316;2022-11-12T15:45:01;9.70;99.90
20815;DHT22;10568;48.176;16.316;2022-11-12T15:47:27;9.60;99.90
20815;DHT22;10568;48.176;16.316;2022-11-12T15:49:54;9.50;99.90
20815;DHT22;10568;48.176;16.316;2022-11-12T15:52:21;9.50;99.90
20815;DHT22;10568;48.176;16.316;2022-11-12T15:54:47;9.40;99.90
20815;DHT22;10568;48.176;16.316;2022-11-12T15:57:21;9.30;99.90
20815;DHT22;10568;48.176;16.316;2022-11-12T15:59:58;9.30;99.90
20815;DHT22;10568;48.176;16.316;2022-11-12T16:02:24;9.20;99.90
20815;DHT22;10568;48.176;16.316;2022-11-12T16:04:50;9.10;99.90
20815;DHT22;10568;48.176;16.316;2022-11-12T16:07:16;9.10;99.90
20815;DHT22;10568;48.176;16.316;2022-11-12T16:09:42;9.00;99.90
20815;DHT22;10568;48.176;16.316;2022-11-12T16:12:10;9.00;99.90
20815;DHT22;10568;48.176;16.316;2022-11-12T16:14:37;8.90;99.90
20815;DHT22;10568;48.176;16.316;2022-11-12T16:17:03;8.80;99.90
20815;DHT22;10568;48.176;16.316;2022-11-12T16:19:29;8.70;99.90
20815;DHT22;10568;48.176;16.316;2022-11-12T16:21:59;8.70;99.90
20815;DHT22;10568;48.176;16.316;2022-11-12T16:24:25;8.60;99.90
20815;DHT22;10568;48.176;16.316;2022-11-12T16:26:51;8.60;99.90
20815;DHT22;10568;48.176;16.316;2022-11-12T16:29:17;8.60;99.90
20815;DHT22;10568;48.176;16.316;2022-11-12T16:31:43;8.50;99.90
20815;DHT22;10568;48.176;16.316;2022-11-12T16:34:10;8.50;99.90
20815;DHT22;10568;48.176;16.316;2022-11-12T16:36:36;8.50;99.90
20815;DHT22;10568;48.176;16.316;2022-11-12T16:39:02;8.50;99.90
20815;DHT22;10568;48.176;16.316;2022-11-12T16:41:28;8.50;99.90
20815;DHT22;10568;48.176;16.316;2022-11-12T16:43:54;8.50;99.90
20815;DHT22;10568;48.176;16.316;2022-11-12T16:46:28;8.50;99.90
20815;DHT22;10568;48.176;16.316;2022-11-12T16:48:54;8.50;99.90
20815;DHT22;10568;48.176;16.316;2022-11-12T16:51:21;8.60;99.90
20815;DHT22;10568;48.176;16.316;2022-11-12T16:53:47;8.60;99.90
20815;DHT22;10568;48.176;16.316;2022-11-12T16:56:18;8.50;99.90
20815;DHT22;10568;48.176;16.316;2022-11-12T16:58:45;8.50;99.90
20815;DHT22;10568;48.176;16.316;2022-11-12T17:01:31;8.40;99.90
20815;DHT22;10568;48.176;16.316;2022-11-12T17:03:57;8.40;99.90
20815;DHT22;10568;48.176;16.316;2022-11-12T17:06:31;8.30;99.90
20815;DHT22;10568;48.176;16.316;2022-11-12T17:08:58;8.20;99.90
20815;DHT22;10568;48.176;16.316;2022-11-12T17:11:25;8.20;99.90
20815;DHT22;10568;48.176;16.316;2022-11-12T17:13:51;8.20;99.90
20815;DHT22;10568;48.176;16.316;2022-11-12T17:16:17;8.10;99.90
20815;DHT22;10568;48.176;16.316;2022-11-12T17:18:42;8.00;99.90
20815;DHT22;10568;48.176;16.316;2022-11-12T17:21:16;8.00;99.90
20815;DHT22;10568;48.176;16.316;2022-11-12T17:23:43;7.90;99.90
20815;DHT22;10568;48.176;16.316;2022-11-12T17:26:12;7.90;99.90
20815;DHT22;10568;48.176;16.316;2022-11-12T17:28:39;7.80;99.90
20815;DHT22;10568;48.176;16.316;2022-11-12T17:31:06;7.70;99.90
20815;DHT22;10568;48.176;16.316;2022-11-12T17:33:36;7.60;99.90
20815;DHT22;10568;48.176;16.316;2022-11-12T17:36:03;7.60;99.90
20815;DHT22;10568;48.176;16.316;2022-11-12T17:38:29;7.50;99.90
20815;DHT22;10568;48.176;16.316;2022-11-12T17:40:58;7.50;99.90
20815;DHT22;10568;48.176;16.316;2022-11-12T17:43:24;7.40;99.90
20815;DHT22;10568;48.176;16.316;2022-11-12T17:45:51;7.30;99.90
20815;DHT22;10568;48.176;16.316;2022-11-12T17:48:18;7.20;99.90
20815;DHT22;10568;48.176;16.316;2022-11-12T17:50:44;7.20;99.90
20815;DHT22;10568;48.176;16.316;2022-11-12T17:53:11;7.10;99.90
20815;DHT22;10568;48.176;16.316;2022-11-12T17:55:37;7.10;99.90
20815;DHT22;10568;48.176;16.316;2022-11-12T17:58:03;7.00;99.90
20815;DHT22;10568;48.176;16.316;2022-11-12T18:00:29;7.00;99.90
20815;DHT22;10568;48.176;16.316;2022-11-12T18:02:56;7.00;99.90
20815;DHT22;10568;48.176;16.316;2022-11-12T18:05:22;7.00;99.90
20815;DHT22;10568;48.176;16.316;2022-11-12T18:07:48;6.90;99.90
20815;DHT22;10568;48.176;16.316;2022-11-12T18:10:14;7.00;99.90